Time;durP1;ratioP1;P1;durP2;ratioP2;P2;SDS_P1;SDS_P2;PMS_P1;PMS_P2;Temp;Humidity;BMP_temperature;BMP_pressure;BME280_temperature;BME280_humidity;BME280_pressure;Samples;Min_cycle;Max_cycle;Signal;HPM_P1;HPM_P2
2024/04/17 00:00:05;;;;;;;24.25;4.78;;;;;;;;;;5408202;26;20377;-67
2024/04/17 00:02:30;;;;;;;28.38;5.90;;;;;;;;;;5410669;26;20007;-67
2024/04/17 00:04:55;;;;;;;20.03;3.60;;;;;;;;;;5414267;26;20330;-67
2024/04/17 00:07:20;;;;;;;19.10;4.40;;;;;;;;;;5417065;26;20338;-67
2024/04/17 00:09:45;;;;;;;28.00;4.85;;;;;;;;;;5412228;26;20281;-67
2024/04/17 00:12:10;;;;;;;19.42;4.45;;;;;;;;;;5409728;26;20354;-67
2024/04/17 00:14:36;;;;;;;20.83;4.80;;;;;;;;;;5402920;26;19999;-67
2024/04/17 00:17:01;;;;;;;21.98;4.38;;;;;;;;;;5410620;26;20067;-67
2024/04/17 00:19:26;;;;;;;19.25;4.38;;;;;;;;;;5395943;26;20016;-67
2024/04/17 00:21:51;;;;;;;15.45;4.30;;;;;;;;;;5399624;26;20467;-67
2024/04/17 00:24:17;;;;;;;33.55;4.50;;;;;;;;;;5404928;26;20311;-67
2024/04/17 00:26:42;;;;;;;24.10;4.63;;;;;;;;;;5413531;26;20003;-67
2024/04/17 00:29:07;;;;;;;33.10;4.43;;;;;;;;;;5394248;26;19992;-67
2024/04/17 00:31:32;;;;;;;16.98;4.50;;;;;;;;;;5412088;26;20225;-67
2024/04/17 00:33:57;;;;;;;26.30;4.33;;;;;;;;;;5414375;26;20136;-67
2024/04/17 00:36:23;;;;;;;25.08;6.47;;;;;;;;;;5380182;26;20241;-67
2024/04/17 00:38:48;;;;;;;18.97;3.97;;;;;;;;;;5408697;26;20009;-68
2024/04/17 00:41:13;;;;;;;12.30;3.77;;;;;;;;;;5412772;26;20262;-67
2024/04/17 00:43:38;;;;;;;16.77;3.72;;;;;;;;;;5408051;26;20717;-67
2024/04/17 00:46:05;;;;;;;20.53;3.50;;;;;;;;;;5412709;26;19991;-67
2024/04/17 00:48:30;;;;;;;22.95;4.25;;;;;;;;;;5406594;26;20230;-66
2024/04/17 00:50:57;;;;;;;13.20;3.58;;;;;;;;;;5411799;26;20449;-67
2024/04/17 00:53:24;;;;;;;29.48;6.13;;;;;;;;;;5398765;26;20019;-67
2024/04/17 00:55:50;;;;;;;22.55;3.65;;;;;;;;;;5407588;26;20010;-67
2024/04/17 00:58:16;;;;;;;21.52;3.80;;;;;;;;;;5409301;26;19999;-66
2024/04/17 01:00:41;;;;;;;21.65;3.28;;;;;;;;;;5407466;26;19999;-66
2024/04/17 01:03:06;;;;;;;21.20;4.07;;;;;;;;;;5409841;26;20467;-67
2024/04/17 01:05:32;;;;;;;14.20;2.87;;;;;;;;;;5407581;26;20007;-67
2024/04/17 01:07:58;;;;;;;26.85;4.05;;;;;;;;;;5391131;26;20565;-67
2024/04/17 01:10:23;;;;;;;24.05;3.58;;;;;;;;;;5412227;26;20014;-66
2024/04/17 01:12:48;;;;;;;16.90;3.80;;;;;;;;;;5410955;26;20417;-67
2024/04/17 01:15:13;;;;;;;24.83;4.13;;;;;;;;;;5405386;26;20014;-66
2024/04/17 01:17:39;;;;;;;20.70;4.10;;;;;;;;;;5398876;26;20454;-67
2024/04/17 01:20:04;;;;;;;20.48;4.63;;;;;;;;;;5403303;26;19992;-67
2024/04/17 01:22:30;;;;;;;17.90;3.58;;;;;;;;;;5413184;26;20000;-67
2024/04/17 01:24:55;;;;;;;20.23;3.70;;;;;;;;;;5403441;26;20003;-67
2024/04/17 01:27:21;;;;;;;10.25;4.68;;;;;;;;;;5402891;26;20033;-67
2024/04/17 01:29:46;;;;;;;19.80;4.10;;;;;;;;;;5402191;26;20335;-67
2024/04/17 01:32:11;;;;;;;18.65;4.47;;;;;;;;;;5410809;26;20018;-67
2024/04/17 01:34:36;;;;;;;21.65;4.50;;;;;;;;;;5411819;26;20637;-67
2024/04/17 01:37:01;;;;;;;25.83;4.93;;;;;;;;;;5409645;26;20000;-67
2024/04/17 01:39:27;;;;;;;17.98;4.82;;;;;;;;;;5403720;26;19995;-67
2024/04/17 01:41:52;;;;;;;22.10;4.10;;;;;;;;;;5378367;26;20420;-67
2024/04/17 01:44:17;;;;;;;14.30;4.67;;;;;;;;;;5407806;26;20235;-67
2024/04/17 01:46:42;;;;;;;21.38;4.80;;;;;;;;;;5406608;26;20225;-67
2024/04/17 01:49:07;;;;;;;21.70;6.00;;;;;;;;;;5396421;26;20431;-67
2024/04/17 01:51:33;;;;;;;29.20;4.68;;;;;;;;;;5406594;26;20241;-67
2024/04/17 01:53:58;;;;;;;28.77;5.38;;;;;;;;;;5407516;26;20009;-67
2024/04/17 01:56:23;;;;;;;28.90;5.20;;;;;;;;;;5405758;26;20519;-67
2024/04/17 01:58:48;;;;;;;24.07;5.90;;;;;;;;;;5399481;26;20238;-66
2024/04/17 02:01:13;;;;;;;21.83;5.47;;;;;;;;;;5402798;26;20246;-67
2024/04/17 02:03:38;;;;;;;24.57;5.73;;;;;;;;;;5406418;26;20229;-67
2024/04/17 02:06:04;;;;;;;15.57;4.50;;;;;;;;;;5398562;26;20285;-66
2024/04/17 02:08:29;;;;;;;21.40;5.70;;;;;;;;;;5407602;26;20659;-67
2024/04/17 02:10:54;;;;;;;17.45;6.05;;;;;;;;;;5408492;26;20020;-66
2024/04/17 02:13:19;;;;;;;25.33;5.60;;;;;;;;;;5410876;26;19999;-67
2024/04/17 02:15:45;;;;;;;22.48;5.90;;;;;;;;;;5410016;26;19995;-67
2024/04/17 02:18:10;;;;;;;20.60;4.97;;;;;;;;;;5401891;26;20015;-66
2024/04/17 02:20:35;;;;;;;32.07;5.80;;;;;;;;;;5407785;26;20011;-67
2024/04/17 02:23:00;;;;;;;18.93;5.47;;;;;;;;;;5412479;26;20284;-67
2024/04/17 02:25:25;;;;;;;20.60;5.13;;;;;;;;;;5411357;26;20237;-66
2024/04/17 02:27:50;;;;;;;21.92;5.25;;;;;;;;;;5411678;26;19995;-66
2024/04/17 02:30:16;;;;;;;18.30;6.18;;;;;;;;;;5402354;26;20338;-67
2024/04/17 02:32:41;;;;;;;15.63;5.28;;;;;;;;;;5411468;26;20019;-66
2024/04/17 02:35:06;;;;;;;23.20;5.90;;;;;;;;;;5407923;26;19992;-66
2024/04/17 02:37:31;;;;;;;20.70;6.13;;;;;;;;;;5408338;26;20221;-66
2024/04/17 02:39:56;;;;;;;24.90;5.13;;;;;;;;;;5400811;26;20337;-67
2024/04/17 02:42:21;;;;;;;25.00;6.80;;;;;;;;;;5410628;26;20767;-67
2024/04/17 02:44:47;;;;;;;46.40;6.33;;;;;;;;;;5401850;26;20246;-67
2024/04/17 02:47:12;;;;;;;25.17;7.67;;;;;;;;;;5403855;26;20834;-66
2024/04/17 02:49:37;;;;;;;30.47;6.53;;;;;;;;;;5398004;26;20323;-67
2024/04/17 02:52:02;;;;;;;34.55;6.63;;;;;;;;;;5404750;26;20237;-67
2024/04/17 02:54:27;;;;;;;24.90;7.00;;;;;;;;;;5396183;26;20060;-66
2024/04/17 02:56:53;;;;;;;28.87;6.70;;;;;;;;;;5395830;26;19987;-67
2024/04/17 02:59:18;;;;;;;18.52;6.80;;;;;;;;;;5408704;26;20810;-66
2024/04/17 03:01:43;;;;;;;29.77;7.97;;;;;;;;;;5396705;26;20371;-66
2024/04/17 03:04:08;;;;;;;22.23;6.43;;;;;;;;;;5392073;26;20230;-67
2024/04/17 03:06:33;;;;;;;29.63;6.27;;;;;;;;;;5410427;26;20249;-67
2024/04/17 03:08:59;;;;;;;27.05;6.68;;;;;;;;;;5401124;26;20283;-67
2024/04/17 03:11:24;;;;;;;32.73;7.33;;;;;;;;;;5404857;26;19991;-66
2024/04/17 03:13:49;;;;;;;23.98;6.95;;;;;;;;;;5404371;26;20343;-66
2024/04/17 03:16:14;;;;;;;27.45;6.90;;;;;;;;;;5401710;26;20000;-66
2024/04/17 03:18:39;;;;;;;32.37;7.50;;;;;;;;;;5410586;26;20124;-67
2024/04/17 03:21:04;;;;;;;22.57;6.63;;;;;;;;;;5395370;26;20266;-67
2024/04/17 03:23:30;;;;;;;21.50;6.40;;;;;;;;;;5393005;26;20562;-66
2024/04/17 03:25:55;;;;;;;33.05;6.35;;;;;;;;;;5406888;26;20237;-66
2024/04/17 03:28:21;;;;;;;15.27;6.50;;;;;;;;;;5409766;26;19996;-66
2024/04/17 03:30:46;;;;;;;19.70;6.18;;;;;;;;;;5402686;26;20003;-66
2024/04/17 03:33:11;;;;;;;20.05;7.85;;;;;;;;;;5398153;26;20445;-66
2024/04/17 03:35:36;;;;;;;33.80;7.83;;;;;;;;;;5405944;26;20006;-67
2024/04/17 03:38:01;;;;;;;41.87;8.60;;;;;;;;;;5400827;26;20242;-67
2024/04/17 03:40:27;;;;;;;26.30;6.40;;;;;;;;;;5401298;26;20274;-66
2024/04/17 03:42:52;;;;;;;30.88;8.27;;;;;;;;;;5396017;26;20581;-67
2024/04/17 03:45:18;;;;;;;25.17;7.57;;;;;;;;;;5403117;26;20018;-66
2024/04/17 03:47:43;;;;;;;19.83;6.50;;;;;;;;;;5402389;26;20262;-67
2024/04/17 03:50:08;;;;;;;14.15;6.57;;;;;;;;;;5405471;26;19992;-67
2024/04/17 03:52:33;;;;;;;22.83;6.87;;;;;;;;;;5411410;26;20065;-67
2024/04/17 03:54:58;;;;;;;20.45;5.93;;;;;;;;;;5399955;26;20951;-66
2024/04/17 03:57:26;;;;;;;22.50;6.57;;;;;;;;;;5408582;26;20386;-67
2024/04/17 03:59:51;;;;;;;19.48;6.78;;;;;;;;;;5413902;26;20751;-66
2024/04/17 04:02:17;;;;;;;18.03;6.10;;;;;;;;;;5405345;26;20014;-66
2024/04/17 04:04:42;;;;;;;22.93;6.77;;;;;;;;;;5406107;26;20233;-66
2024/04/17 04:07:07;;;;;;;20.15;7.32;;;;;;;;;;5406532;26;20230;-67
2024/04/17 04:09:32;;;;;;;20.67;6.80;;;;;;;;;;5412407;26;20373;-67
2024/04/17 04:11:57;;;;;;;25.55;7.47;;;;;;;;;;5402984;26;20281;-67
2024/04/17 04:14:22;;;;;;;25.35;7.35;;;;;;;;;;5412153;26;20386;-66
2024/04/17 04:16:48;;;;;;;18.85;6.65;;;;;;;;;;5411425;26;20003;-67
2024/04/17 04:19:13;;;;;;;22.03;6.97;;;;;;;;;;5409676;26;20364;-66
2024/04/17 04:21:38;;;;;;;31.23;8.10;;;;;;;;;;5407193;26;20245;-67
2024/04/17 04:24:03;;;;;;;25.20;7.93;;;;;;;;;;5402575;26;20253;-67
2024/04/17 04:26:28;;;;;;;27.23;6.80;;;;;;;;;;5409733;26;20249;-66
2024/04/17 04:28:54;;;;;;;21.73;6.93;;;;;;;;;;5401572;26;19996;-67
2024/04/17 04:31:19;;;;;;;27.08;8.18;;;;;;;;;;5408194;26;20246;-66
2024/04/17 04:33:44;;;;;;;25.88;8.13;;;;;;;;;;5411767;26;19991;-67
2024/04/17 04:36:09;;;;;;;34.83;8.52;;;;;;;;;;5408336;26;20000;-66
2024/04/17 04:38:34;;;;;;;28.40;8.17;;;;;;;;;;5407063;26;20068;-66
2024/04/17 04:40:59;;;;;;;38.73;12.40;;;;;;;;;;5405264;26;20245;-66
2024/04/17 04:43:25;;;;;;;33.70;10.10;;;;;;;;;;5404637;26;20750;-67
2024/04/17 04:45:50;;;;;;;32.07;8.23;;;;;;;;;;5389365;26;20233;-66
2024/04/17 04:48:15;;;;;;;29.67;10.10;;;;;;;;;;5409389;26;20631;-66
2024/04/17 04:50:40;;;;;;;23.73;8.00;;;;;;;;;;5408021;26;20262;-67
2024/04/17 04:53:05;;;;;;;25.20;8.97;;;;;;;;;;5408870;26;20661;-66
2024/04/17 04:55:31;;;;;;;19.73;9.63;;;;;;;;;;5408664;26;20266;-66
2024/04/17 04:57:56;;;;;;;39.00;9.88;;;;;;;;;;5407230;26;20273;-66
2024/04/17 05:00:21;;;;;;;41.78;9.85;;;;;;;;;;5411280;26;19991;-66
2024/04/17 05:02:47;;;;;;;30.47;9.30;;;;;;;;;;5394527;26;20111;-66
2024/04/17 05:05:12;;;;;;;32.17;9.43;;;;;;;;;;5409914;26;20594;-66
2024/04/17 05:07:37;;;;;;;31.15;9.80;;;;;;;;;;5401366;26;20012;-66
2024/04/17 05:10:02;;;;;;;32.88;8.35;;;;;;;;;;5404498;26;19996;-66
2024/04/17 05:12:27;;;;;;;37.13;10.90;;;;;;;;;;5403885;26;20042;-67
2024/04/17 05:14:53;;;;;;;42.50;9.52;;;;;;;;;;5401410;26;20113;-66
2024/04/17 05:17:18;;;;;;;35.63;9.07;;;;;;;;;;5403769;26;20339;-66
2024/04/17 05:19:43;;;;;;;42.33;9.98;;;;;;;;;;5407450;26;20756;-67
2024/04/17 05:22:08;;;;;;;39.42;10.30;;;;;;;;;;5399248;26;20083;-67
2024/04/17 05:24:33;;;;;;;46.03;10.37;;;;;;;;;;5406029;26;20323;-67
2024/04/17 05:26:58;;;;;;;43.25;12.20;;;;;;;;;;5400955;26;20289;-66
2024/04/17 05:29:24;;;;;;;48.33;12.88;;;;;;;;;;5406025;26;20190;-67
2024/04/17 05:31:49;;;;;;;51.95;13.23;;;;;;;;;;5394630;26;20510;-66
2024/04/17 05:34:14;;;;;;;43.97;12.65;;;;;;;;;;5400779;26;20018;-66
2024/04/17 05:36:39;;;;;;;36.30;10.80;;;;;;;;;;5405481;26;20003;-67
2024/04/17 05:39:04;;;;;;;40.28;11.15;;;;;;;;;;5400732;26;20249;-66
2024/04/17 05:41:30;;;;;;;25.42;7.38;;;;;;;;;;5402083;26;20040;-66
2024/04/17 05:43:55;;;;;;;36.05;9.40;;;;;;;;;;5389540;26;19999;-66
2024/04/17 05:46:25;;;;;;;40.60;9.27;;;;;;;;;;5396521;26;20016;-66
2024/04/17 05:48:50;;;;;;;43.80;8.40;;;;;;;;;;5398784;26;20079;-67
2024/04/17 05:51:15;;;;;;;35.15;9.63;;;;;;;;;;5407444;26;20447;-66
2024/04/17 05:53:40;;;;;;;38.33;9.82;;;;;;;;;;5400921;26;19996;-67
2024/04/17 05:56:06;;;;;;;32.70;8.20;;;;;;;;;;5390989;26;20043;-66
2024/04/17 05:58:32;;;;;;;23.63;8.88;;;;;;;;;;5404924;26;20000;-67
2024/04/17 06:00:57;;;;;;;28.50;9.00;;;;;;;;;;5400970;26;20060;-67
2024/04/17 06:03:23;;;;;;;46.17;10.70;;;;;;;;;;5408833;26;19995;-66
2024/04/17 06:05:48;;;;;;;26.67;10.03;;;;;;;;;;5402954;26;20779;-66
2024/04/17 06:08:13;;;;;;;42.50;11.10;;;;;;;;;;5407466;26;20281;-66
2024/04/17 06:10:38;;;;;;;31.10;11.83;;;;;;;;;;5407233;26;20572;-67
2024/04/17 06:13:03;;;;;;;32.60;9.73;;;;;;;;;;5406049;26;20273;-66
2024/04/17 06:15:30;;;;;;;40.22;12.63;;;;;;;;;;5396536;26;19999;-66
2024/04/17 06:17:56;;;;;;;37.47;10.70;;;;;;;;;;5401706;26;20010;-67
2024/04/17 06:20:21;;;;;;;59.80;14.57;;;;;;;;;;5400937;26;19991;-66
2024/04/17 06:22:46;;;;;;;40.13;14.43;;;;;;;;;;5405915;26;20359;-67
2024/04/17 06:25:11;;;;;;;45.83;11.77;;;;;;;;;;5390185;26;20436;-66
2024/04/17 06:27:36;;;;;;;49.40;14.75;;;;;;;;;;5392280;26;20237;-67
2024/04/17 06:30:02;;;;;;;41.20;14.83;;;;;;;;;;5401276;26;20072;-66
2024/04/17 06:32:27;;;;;;;37.22;14.77;;;;;;;;;;5409740;26;20288;-66
2024/04/17 06:34:52;;;;;;;50.53;15.70;;;;;;;;;;5395968;26;19999;-66
2024/04/17 06:37:17;;;;;;;42.90;13.93;;;;;;;;;;5395192;26;20003;-66
2024/04/17 06:39:43;;;;;;;38.93;13.57;;;;;;;;;;5403283;26;20018;-67
2024/04/17 06:42:08;;;;;;;45.63;15.27;;;;;;;;;;5403603;26;20273;-67
2024/04/17 06:44:33;;;;;;;52.85;18.70;;;;;;;;;;5402124;26;20347;-67
2024/04/17 06:47:00;;;;;;;54.22;19.08;;;;;;;;;;5403440;26;20011;-66
2024/04/17 06:49:26;;;;;;;54.47;17.52;;;;;;;;;;5404956;26;20041;-67
2024/04/17 06:51:52;;;;;;;52.80;17.23;;;;;;;;;;5401137;26;19999;-67
2024/04/17 06:54:17;;;;;;;39.90;16.33;;;;;;;;;;5399001;26;19996;-67
2024/04/17 06:56:42;;;;;;;40.80;15.40;;;;;;;;;;5403689;26;20011;-67
2024/04/17 06:59:07;;;;;;;46.92;15.50;;;;;;;;;;5396718;26;20226;-66
2024/04/17 07:01:33;;;;;;;48.27;17.30;;;;;;;;;;5408906;26;20358;-67
2024/04/17 07:03:58;;;;;;;47.10;16.77;;;;;;;;;;5411244;26;20273;-67
2024/04/17 07:06:23;;;;;;;46.55;15.60;;;;;;;;;;5410088;26;20006;-66
2024/04/17 07:08:48;;;;;;;45.90;16.00;;;;;;;;;;5404830;26;20504;-66
2024/04/17 07:11:13;;;;;;;37.83;13.80;;;;;;;;;;5406272;26;20417;-66
2024/04/17 07:13:40;;;;;;;43.88;14.95;;;;;;;;;;5379869;26;20229;-67
2024/04/17 07:16:05;;;;;;;47.83;18.38;;;;;;;;;;5399038;26;20000;-66
2024/04/17 07:18:30;;;;;;;40.53;14.48;;;;;;;;;;5410649;26;19995;-66
2024/04/17 07:20:56;;;;;;;32.67;12.03;;;;;;;;;;5408921;26;20032;-66
2024/04/17 07:23:21;;;;;;;26.50;8.80;;;;;;;;;;5412762;26;20233;-67
2024/04/17 07:25:46;;;;;;;38.67;12.30;;;;;;;;;;5409229;26;20237;-67
2024/04/17 07:28:11;;;;;;;30.47;9.40;;;;;;;;;;5381471;26;20374;-67
2024/04/17 07:30:40;;;;;;;35.08;9.60;;;;;;;;;;5399891;26;20236;-67
2024/04/17 07:33:05;;;;;;;22.90;8.25;;;;;;;;;;5411812;26;20018;-67
2024/04/17 07:35:30;;;;;;;29.25;9.30;;;;;;;;;;5413840;26;19996;-67
2024/04/17 07:37:56;;;;;;;21.45;7.63;;;;;;;;;;5409386;26;20080;-66
2024/04/17 07:40:21;;;;;;;24.80;8.80;;;;;;;;;;5411843;26;19995;-67
2024/04/17 07:42:47;;;;;;;24.13;9.02;;;;;;;;;;5414425;26;20011;-66
2024/04/17 07:45:12;;;;;;;22.23;8.80;;;;;;;;;;5411341;26;19991;-66
2024/04/17 07:47:37;;;;;;;21.02;7.68;;;;;;;;;;5410560;26;19996;-68
2024/04/17 07:50:03;;;;;;;27.77;10.35;;;;;;;;;;5412221;26;20008;-68
2024/04/17 07:52:29;;;;;;;21.15;8.18;;;;;;;;;;5411473;26;20057;-68
2024/04/17 07:54:54;;;;;;;14.10;6.40;;;;;;;;;;5412140;26;20006;-68
2024/04/17 07:57:19;;;;;;;18.90;6.23;;;;;;;;;;5409414;26;20317;-68
2024/04/17 07:59:44;;;;;;;15.33;5.60;;;;;;;;;;5407464;26;20237;-68
2024/04/17 08:02:09;;;;;;;12.88;4.53;;;;;;;;;;5411740;26;20253;-68
2024/04/17 08:04:34;;;;;;;7.20;3.33;;;;;;;;;;5411633;26;20539;-68
2024/04/17 08:07:00;;;;;;;8.83;3.00;;;;;;;;;;5411297;26;20315;-68
2024/04/17 08:09:25;;;;;;;7.60;2.10;;;;;;;;;;5399469;26;20281;-68
2024/04/17 08:11:50;;;;;;;6.03;1.70;;;;;;;;;;5413384;26;20229;-69
2024/04/17 08:14:15;;;;;;;10.38;2.00;;;;;;;;;;5407875;26;20233;-68
2024/04/17 08:16:40;;;;;;;5.27;2.03;;;;;;;;;;5412379;26;19995;-68
2024/04/17 08:19:05;;;;;;;10.13;2.35;;;;;;;;;;5413223;26;20229;-69
2024/04/17 08:21:31;;;;;;;4.85;1.80;;;;;;;;;;5411413;26;20008;-68
2024/04/17 08:23:56;;;;;;;2.63;1.42;;;;;;;;;;5411137;26;19995;-68
2024/04/17 08:26:21;;;;;;;5.78;1.30;;;;;;;;;;5412651;26;19999;-68
2024/04/17 08:28:46;;;;;;;7.30;1.42;;;;;;;;;;5411940;26;20006;-69
2024/04/17 08:31:11;;;;;;;2.07;1.33;;;;;;;;;;5409545;26;20430;-68
2024/04/17 08:33:37;;;;;;;8.33;2.47;;;;;;;;;;5408222;26;20229;-68
2024/04/17 08:36:02;;;;;;;3.10;1.60;;;;;;;;;;5411053;26;20588;-69
2024/04/17 08:38:27;;;;;;;6.50;1.65;;;;;;;;;;5411172;26;20234;-68
2024/04/17 08:40:52;;;;;;;9.20;3.42;;;;;;;;;;5409981;26;19996;-68
2024/04/17 08:43:24;;;;;;;4.87;1.73;;;;;;;;;;5409466;26;19999;-69
2024/04/17 08:45:51;;;;;;;7.95;1.88;;;;;;;;;;5404930;26;20238;-68
2024/04/17 08:48:16;;;;;;;3.13;2.08;;;;;;;;;;5406681;26;20003;-68
2024/04/17 08:50:41;;;;;;;4.60;1.70;;;;;;;;;;5411965;26;20350;-68
2024/04/17 08:53:07;;;;;;;4.78;1.55;;;;;;;;;;5409373;26;20003;-69
2024/04/17 08:55:32;;;;;;;2.58;1.50;;;;;;;;;;5398306;26;20035;-69
2024/04/17 08:57:58;;;;;;;6.60;1.58;;;;;;;;;;5411088;26;20004;-68
2024/04/17 09:00:24;;;;;;;2.50;1.30;;;;;;;;;;5410726;26;20477;-69
2024/04/17 09:02:51;;;;;;;5.00;2.20;;;;;;;;;;5407225;26;19996;-68
2024/04/17 09:05:16;;;;;;;8.55;1.92;;;;;;;;;;5405355;26;20000;-68
2024/04/17 09:07:42;;;;;;;10.70;2.13;;;;;;;;;;5410658;26;19999;-68
2024/04/17 09:10:08;;;;;;;3.03;1.75;;;;;;;;;;5410412;26;20358;-69
2024/04/17 09:12:33;;;;;;;8.10;2.35;;;;;;;;;;5412042;26;20003;-69
2024/04/17 09:14:58;;;;;;;4.75;2.63;;;;;;;;;;5413026;26;20090;-68
2024/04/17 09:17:24;;;;;;;5.43;2.67;;;;;;;;;;5400503;26;20018;-69
2024/04/17 09:19:49;;;;;;;5.65;2.55;;;;;;;;;;5405359;26;20433;-68
2024/04/17 09:22:14;;;;;;;7.95;2.92;;;;;;;;;;5407882;26;20413;-68
2024/04/17 09:24:40;;;;;;;5.72;3.13;;;;;;;;;;5411087;26;20073;-69
2024/04/17 09:27:06;;;;;;;9.38;3.63;;;;;;;;;;5409892;26;19991;-68
2024/04/17 09:29:32;;;;;;;9.20;4.30;;;;;;;;;;5409184;26;20467;-68
2024/04/17 09:31:57;;;;;;;13.82;5.38;;;;;;;;;;5409376;26;20022;-68
2024/04/17 09:34:23;;;;;;;10.38;4.80;;;;;;;;;;5407311;26;20326;-68
2024/04/17 09:36:48;;;;;;;9.73;5.93;;;;;;;;;;5410507;26;19999;-68
2024/04/17 09:39:13;;;;;;;14.00;8.45;;;;;;;;;;5406130;26;20281;-68
2024/04/17 09:41:39;;;;;;;11.52;5.57;;;;;;;;;;5406247;26;20011;-68
2024/04/17 09:44:07;;;;;;;11.45;5.35;;;;;;;;;;5412265;26;20007;-69
2024/04/17 09:46:32;;;;;;;10.02;5.53;;;;;;;;;;5402998;26;20031;-69
2024/04/17 09:48:58;;;;;;;9.13;5.57;;;;;;;;;;5411858;26;20461;-69
2024/04/17 09:51:25;;;;;;;10.45;5.60;;;;;;;;;;5410343;26;20010;-68
2024/04/17 09:53:54;;;;;;;11.95;5.00;;;;;;;;;;5407003;26;20004;-68
2024/04/17 09:56:19;;;;;;;9.30;5.72;;;;;;;;;;5373877;26;20007;-68
2024/04/17 09:58:46;;;;;;;9.95;5.35;;;;;;;;;;5405899;26;20003;-68
2024/04/17 10:01:12;;;;;;;10.82;5.68;;;;;;;;;;5407170;26;20410;-68
2024/04/17 10:03:38;;;;;;;11.73;5.55;;;;;;;;;;5397863;26;20035;-68
2024/04/17 10:06:04;;;;;;;9.07;4.28;;;;;;;;;;5404241;26;20000;-68
2024/04/17 10:08:30;;;;;;;9.88;5.15;;;;;;;;;;5410587;26;20073;-69
2024/04/17 10:10:55;;;;;;;9.50;4.82;;;;;;;;;;5409051;26;20049;-68
2024/04/17 10:13:24;;;;;;;10.30;4.80;;;;;;;;;;5411387;26;20044;-69
2024/04/17 10:15:50;;;;;;;12.43;5.38;;;;;;;;;;5409327;26;19999;-69
2024/04/17 10:18:15;;;;;;;9.45;5.22;;;;;;;;;;5407760;26;20018;-68
2024/04/17 10:20:41;;;;;;;7.75;4.30;;;;;;;;;;5409126;26;20014;-68
2024/04/17 10:23:06;;;;;;;11.80;5.03;;;;;;;;;;5411931;26;20453;-69
2024/04/17 10:25:32;;;;;;;12.07;5.03;;;;;;;;;;5411546;26;20004;-68
2024/04/17 10:28:04;;;;;;;8.52;4.50;;;;;;;;;;5402783;26;20012;-68
2024/04/17 10:30:34;;;;;;;7.28;4.43;;;;;;;;;;5409826;26;20003;-68
2024/04/17 10:32:59;;;;;;;;;;;;;;;;;;5409853;26;20450;-69
2024/04/17 10:35:27;;;;;;;15.13;4.95;;;;;;;;;;5411039;26;20283;-68
2024/04/17 10:37:53;;;;;;;11.52;5.28;;;;;;;;;;5410875;26;20011;-68
2024/04/17 10:40:19;;;;;;;7.43;2.90;;;;;;;;;;5408947;26;20000;-69
2024/04/17 10:42:44;;;;;;;4.85;2.42;;;;;;;;;;5411520;26;20010;-69
2024/04/17 10:45:09;;;;;;;6.07;2.10;;;;;;;;;;5409061;26;19999;-69
2024/04/17 10:47:34;;;;;;;6.88;2.28;;;;;;;;;;5397239;26;20221;-68
2024/04/17 10:50:01;;;;;;;6.60;2.50;;;;;;;;;;5409065;26;20040;-69
2024/04/17 10:52:26;;;;;;;5.22;2.22;;;;;;;;;;5409047;26;20225;-69
2024/04/17 10:54:55;;;;;;;8.48;3.47;;;;;;;;;;5407344;26;20327;-69
2024/04/17 10:57:21;;;;;;;8.18;2.72;;;;;;;;;;5408494;26;20450;-69
2024/04/17 10:59:47;;;;;;;5.28;2.72;;;;;;;;;;5402794;26;20000;-69
2024/04/17 11:02:13;;;;;;;8.05;2.90;;;;;;;;;;5404199;26;20080;-68
2024/04/17 11:04:38;;;;;;;9.70;2.75;;;;;;;;;;5408426;26;20084;-69
2024/04/17 11:07:06;;;;;;;5.53;2.67;;;;;;;;;;5407908;26;20064;-69
2024/04/17 11:09:31;;;;;;;4.65;2.90;;;;;;;;;;5408957;26;20225;-69
2024/04/17 11:11:57;;;;;;;10.82;2.50;;;;;;;;;;5407821;26;20000;-69
2024/04/17 11:14:22;;;;;;;3.65;2.22;;;;;;;;;;5409468;26;20332;-68
2024/04/17 11:16:47;;;;;;;7.70;2.30;;;;;;;;;;5406388;26;20513;-70
2024/04/17 11:19:13;;;;;;;7.60;2.47;;;;;;;;;;5406979;26;20237;-71
2024/04/17 11:21:39;;;;;;;6.72;3.00;;;;;;;;;;5374553;26;20015;-69
2024/04/17 11:24:04;;;;;;;6.57;2.47;;;;;;;;;;5408344;26;20334;-69
2024/04/17 11:26:30;;;;;;;5.00;2.50;;;;;;;;;;5409284;26;19999;-70
2024/04/17 11:28:55;;;;;;;6.47;2.53;;;;;;;;;;5409253;26;20015;-69
2024/04/17 11:31:20;;;;;;;8.07;2.50;;;;;;;;;;5394932;26;20007;-69
2024/04/17 11:33:45;;;;;;;3.88;2.00;;;;;;;;;;5408405;26;20000;-69
2024/04/17 11:36:13;;;;;;;6.40;2.42;;;;;;;;;;5376074;26;20035;-70
2024/04/17 11:38:39;;;;;;;8.32;2.67;;;;;;;;;;5396552;26;20004;-69
2024/04/17 11:41:05;;;;;;;9.85;2.45;;;;;;;;;;5407450;26;20003;-69
2024/04/17 11:43:30;;;;;;;6.00;1.95;;;;;;;;;;5406920;26;20018;-69
2024/04/17 11:45:55;;;;;;;7.03;1.73;;;;;;;;;;5394348;26;20339;-70
2024/04/17 11:48:20;;;;;;;6.00;1.70;;;;;;;;;;5409188;26;19987;-69
2024/04/17 11:50:45;;;;;;;7.65;2.65;;;;;;;;;;5408006;26;20236;-69
2024/04/17 11:53:11;;;;;;;4.57;2.20;;;;;;;;;;5408705;26;20334;-69
2024/04/17 11:55:36;;;;;;;6.93;1.93;;;;;;;;;;5408024;26;20225;-69
2024/04/17 11:58:02;;;;;;;5.93;1.90;;;;;;;;;;5406671;26;20347;-69
2024/04/17 12:00:27;;;;;;;6.28;1.70;;;;;;;;;;5406396;26;20011;-69
2024/04/17 12:02:53;;;;;;;4.33;1.60;;;;;;;;;;5406875;26;19996;-69
2024/04/17 12:05:18;;;;;;;3.70;1.50;;;;;;;;;;5408385;26;20229;-69
2024/04/17 12:07:43;;;;;;;11.18;2.42;;;;;;;;;;5408101;26;20076;-69
2024/04/17 12:10:08;;;;;;;7.00;2.40;;;;;;;;;;5404440;26;19991;-69
2024/04/17 12:12:34;;;;;;;8.23;1.88;;;;;;;;;;5411697;26;19987;-69
2024/04/17 12:15:00;;;;;;;6.50;2.10;;;;;;;;;;5413721;26;20072;-69
2024/04/17 12:17:25;;;;;;;8.32;1.67;;;;;;;;;;5404474;26;20027;-69
2024/04/17 12:19:51;;;;;;;7.13;1.95;;;;;;;;;;5404585;26;20490;-69
2024/04/17 12:22:16;;;;;;;3.80;1.88;;;;;;;;;;5375444;26;20468;-69
2024/04/17 12:27:25;;;;;;;6.72;1.40;;;;;;;;;;5412280;26;20275;-69
2024/04/17 12:29:50;;;;;;;5.78;1.90;;;;;;;;;;5411132;26;20024;-69
2024/04/17 12:32:15;;;;;;;12.57;1.97;;;;;;;;;;5411038;26;20506;-69
2024/04/17 12:34:42;;;;;;;4.07;1.33;;;;;;;;;;5373913;26;20260;-69
2024/04/17 12:37:08;;;;;;;2.95;1.52;;;;;;;;;;5412509;26;20245;-68
2024/04/17 12:39:33;;;;;;;5.30;1.60;;;;;;;;;;5410795;26;20454;-69
2024/04/17 12:41:58;;;;;;;8.85;1.92;;;;;;;;;;5404845;26;20007;-69
2024/04/17 12:44:23;;;;;;;9.47;1.50;;;;;;;;;;5413056;26;19992;-68
2024/04/17 12:46:48;;;;;;;5.90;2.60;;;;;;;;;;5412686;26;20273;-69
2024/04/17 12:49:14;;;;;;;10.00;2.28;;;;;;;;;;5412354;26;20686;-69
2024/04/17 12:51:39;;;;;;;6.03;1.77;;;;;;;;;;5411230;26;20092;-68
2024/04/17 12:54:04;;;;;;;8.48;1.95;;;;;;;;;;5407735;26;20237;-68
2024/04/17 12:56:29;;;;;;;8.35;2.72;;;;;;;;;;5411651;26;20019;-68
2024/04/17 12:58:54;;;;;;;12.20;2.00;;;;;;;;;;5412353;26;20014;-69
2024/04/17 13:01:20;;;;;;;11.68;2.55;;;;;;;;;;5411892;26;20002;-68
2024/04/17 13:03:45;;;;;;;11.50;2.03;;;;;;;;;;5412622;26;20003;-68
2024/04/17 13:06:10;;;;;;;7.47;1.73;;;;;;;;;;5413264;26;20068;-68
2024/04/17 13:08:37;;;;;;;5.40;1.40;;;;;;;;;;5374866;26;20262;-68
2024/04/17 13:11:02;;;;;;;3.83;1.77;;;;;;;;;;5411939;26;19999;-68
2024/04/17 13:13:27;;;;;;;10.10;1.60;;;;;;;;;;5413680;26;20010;-68
2024/04/17 13:16:02;;;;;;;8.25;1.98;;;;;;;;;;5393338;26;20419;-68
2024/04/17 13:18:27;;;;;;;9.82;2.10;;;;;;;;;;5401574;26;20011;-68
2024/04/17 13:20:55;;;;;;;3.50;1.90;;;;;;;;;;5393944;26;20007;-68
2024/04/17 13:23:20;;;;;;;8.10;2.22;;;;;;;;;;5386983;26;20017;-69
2024/04/17 13:25:55;;;;;;;8.13;2.10;;;;;;;;;;5406278;26;20004;-68
2024/04/17 13:28:21;;;;;;;7.78;1.95;;;;;;;;;;5410420;26;20347;-69
2024/04/17 13:30:53;;;;;;;3.00;1.48;;;;;;;;;;5400737;26;20011;-68
2024/04/17 13:33:18;;;;;;;6.40;1.90;;;;;;;;;;5408942;26;20500;-69
2024/04/17 13:35:51;;;;;;;14.67;1.60;;;;;;;;;;5403870;26;19995;-69
2024/04/17 13:38:16;;;;;;;5.15;1.77;;;;;;;;;;5408964;26;20293;-69
2024/04/17 13:40:42;;;;;;;7.90;1.80;;;;;;;;;;5406319;26;19987;-69
2024/04/17 13:43:07;;;;;;;10.67;2.17;;;;;;;;;;5411446;26;20647;-69
2024/04/17 13:45:32;;;;;;;9.17;1.60;;;;;;;;;;5406550;26;20281;-69
2024/04/17 13:47:57;;;;;;;4.43;1.50;;;;;;;;;;5399567;26;20599;-69
2024/04/17 13:50:22;;;;;;;3.50;1.60;;;;;;;;;;5397488;26;20630;-69
2024/04/17 13:52:47;;;;;;;5.70;1.87;;;;;;;;;;5410905;26;20245;-69
2024/04/17 13:55:13;;;;;;;6.75;1.83;;;;;;;;;;5399145;26;20301;-69
2024/04/17 13:57:39;;;;;;;10.57;1.83;;;;;;;;;;5410446;26;20596;-69
2024/04/17 14:00:05;;;;;;;13.82;2.30;;;;;;;;;;5405878;26;20739;-69
2024/04/17 14:02:31;;;;;;;10.50;2.05;;;;;;;;;;5402256;26;20017;-69
2024/04/17 14:04:56;;;;;;;7.77;2.00;;;;;;;;;;5402244;26;20346;-69
2024/04/17 14:07:21;;;;;;;4.23;1.63;;;;;;;;;;5394425;26;20261;-69
2024/04/17 14:09:50;;;;;;;11.18;1.60;;;;;;;;;;5406169;26;20591;-69
2024/04/17 14:12:15;;;;;;;7.50;1.85;;;;;;;;;;5395198;26;20018;-69
2024/04/17 14:14:40;;;;;;;5.05;1.40;;;;;;;;;;5401889;26;20355;-69
2024/04/17 14:17:06;;;;;;;5.30;1.65;;;;;;;;;;5406284;26;20007;-69
2024/04/17 14:19:31;;;;;;;4.47;1.50;;;;;;;;;;5397297;26;20434;-69
2024/04/17 14:21:56;;;;;;;5.30;2.20;;;;;;;;;;5401032;26;20066;-69
2024/04/17 14:24:21;;;;;;;2.63;1.48;;;;;;;;;;5395387;26;20069;-69